createdAt,value
2022-08-16T00:02:12.991Z,97363.79
2022-08-16T00:04:36.462Z,97361.86
2022-08-16T00:07:06.238Z,97361.86
2022-08-16T00:09:35.965Z,97365.41
2022-08-16T00:12:06.029Z,97364.05
2022-08-16T00:14:35.617Z,97364.05
2022-08-16T00:17:18.896Z,97360.78
2022-08-16T00:19:41.129Z,97358.05
2022-08-16T00:22:12.793Z,97356.93
2022-08-16T00:24:40.050Z,97362.16
2022-08-16T00:27:12.609Z,97357.48
2022-08-16T00:29:42.497Z,97356.11
2022-08-16T00:32:12.721Z,97352.58
2022-08-16T00:34:53.880Z,97349.83
2022-08-16T00:37:17.061Z,97341.61
2022-08-16T00:39:57.194Z,97343.50
2022-08-16T00:42:30.734Z,97339.95
2022-08-16T00:44:56.827Z,97346.24
2022-08-16T00:47:26.851Z,97345.98
2022-08-16T00:49:58.193Z,97356.94
2022-08-16T00:52:30.067Z,97362.42
2022-08-16T00:54:58.850Z,97359.42
2022-08-16T00:57:59.051Z,97366.27
2022-08-16T01:00:02.283Z,97365.17
2022-08-16T01:02:33.082Z,97364.08
2022-08-16T01:05:10.371Z,97370.92
2022-08-16T01:07:51.670Z,97369.55
2022-08-16T01:10:16.145Z,97369.55
2022-08-16T01:12:38.974Z,97368.23
2022-08-16T01:15:09.626Z,97373.43
2022-08-16T01:17:43.362Z,97376.98
2022-08-16T01:20:24.677Z,97380.28
2022-08-16T01:22:53.819Z,97381.36
2022-08-16T01:25:33.672Z,97382.73
2022-08-16T01:28:02.283Z,97380.84
2022-08-16T01:30:34.236Z,97383.03
2022-08-16T01:33:14.331Z,97388.80
2022-08-16T01:35:42.321Z,97390.42
2022-08-16T01:38:21.441Z,97387.68
2022-08-16T01:40:58.231Z,97396.73
2022-08-16T01:43:31.141Z,97392.38
2022-08-16T01:46:30.053Z,97398.14
2022-08-16T01:48:36.778Z,97408.53
2022-08-16T01:51:16.665Z,97404.98
2022-08-16T01:53:41.241Z,97400.33
2022-08-16T01:56:23.684Z,97400.61
2022-08-16T01:58:48.030Z,97404.20
2022-08-16T02:01:16.247Z,97410.19
2022-08-16T02:03:50.599Z,97411.00
2022-08-16T02:06:34.154Z,97411.56
2022-08-16T02:08:51.183Z,97409.94
2022-08-16T02:11:20.847Z,97412.42
2022-08-16T02:13:54.891Z,97412.42
2022-08-16T02:16:23.480Z,97420.34
2022-08-16T02:18:53.812Z,97419.53
2022-08-16T02:21:31.344Z,97426.64
2022-08-16T02:23:56.130Z,97420.66
2022-08-16T02:26:26.986Z,97423.39
2022-08-16T02:28:59.999Z,97428.87
2022-08-16T02:32:04.109Z,97438.16
2022-08-16T02:34:06.320Z,97439.53
2022-08-16T02:36:42.412Z,97436.28
2022-08-16T02:39:07.642Z,97442.27
2022-08-16T02:41:39.597Z,97448.05
2022-08-16T02:44:13.884Z,97462.28
2022-08-16T02:46:50.480Z,97460.11
2022-08-16T02:49:16.763Z,97464.21
2022-08-16T02:51:46.587Z,97464.48
2022-08-16T02:54:17.643Z,97471.88
2022-08-16T02:56:48.147Z,97478.16
2022-08-16T02:59:17.733Z,97478.98
2022-08-16T03:01:50.149Z,97482.01
2022-08-16T03:04:39.762Z,97481.46
2022-08-16T03:06:57.346Z,97477.35
2022-08-16T03:09:28.861Z,97480.35
2022-08-16T03:12:04.079Z,97477.35
2022-08-16T03:14:34.109Z,97485.82
2022-08-16T03:17:04.203Z,97487.48
2022-08-16T03:19:48.410Z,97485.00
2022-08-16T03:22:06.119Z,97481.72
2022-08-16T03:24:36.246Z,97486.63
2022-08-16T03:27:06.125Z,97483.63
2022-08-16T03:29:36.377Z,97483.89
2022-08-16T03:32:06.845Z,97488.55
2022-08-16T03:34:36.487Z,97489.66
2022-08-16T03:37:06.909Z,97487.73
2022-08-16T03:39:42.569Z,97491.55
2022-08-16T03:42:09.707Z,97494.02
2022-08-16T03:44:43.984Z,97490.73
2022-08-16T03:47:10.718Z,97495.64
2022-08-16T03:49:40.587Z,97497.86
2022-08-16T03:52:14.143Z,97500.31
2022-08-16T03:54:57.418Z,97496.49
2022-08-16T03:57:18.021Z,97498.94
2022-08-16T03:59:51.059Z,97499.23
2022-08-16T04:02:31.480Z,97501.12
2022-08-16T04:04:54.785Z,97497.83
2022-08-16T04:07:25.822Z,97503.34
2022-08-16T04:09:55.466Z,97508.52
2022-08-16T04:12:52.980Z,97511.25
2022-08-16T04:14:59.685Z,97512.88
2022-08-16T04:17:30.071Z,97511.80
2022-08-16T04:20:00.053Z,97493.77
2022-08-16T04:22:33.231Z,97493.77
2022-08-16T04:25:07.331Z,97511.80
2022-08-16T04:27:40.011Z,97507.40
2022-08-16T04:30:31.835Z,97510.43
2022-08-16T04:32:49.119Z,97509.31
2022-08-16T04:35:20.631Z,97501.97
2022-08-16T04:37:53.729Z,97506.03
2022-08-16T04:40:25.138Z,97507.95
2022-08-16T04:42:55.176Z,97509.88
2022-08-16T04:45:35.371Z,97511.50
2022-08-16T04:47:58.103Z,97507.39
2022-08-16T04:50:31.195Z,97510.14
2022-08-16T04:53:01.018Z,97512.35
2022-08-16T04:55:31.995Z,97514.23
2022-08-16T04:58:02.280Z,97512.61
2022-08-16T05:00:35.069Z,97513.69
2022-08-16T05:03:08.338Z,97513.72
2022-08-16T05:05:44.871Z,97507.69
2022-08-16T05:08:29.232Z,97507.69
2022-08-16T05:10:44.361Z,97500.55
2022-08-16T05:13:14.481Z,97510.94
2022-08-16T05:15:45.465Z,97513.42
2022-08-16T05:18:18.271Z,97508.77
2022-08-16T05:21:06.520Z,97504.40
2022-08-16T05:23:19.509Z,97507.13
2022-08-16T05:25:50.942Z,97508.50
2022-08-16T05:28:22.303Z,97501.91
2022-08-16T05:30:53.718Z,97503.28
2022-08-16T05:33:23.351Z,97501.92
2022-08-16T05:35:55.230Z,97505.47
2022-08-16T05:38:30.977Z,97504.94
2022-08-16T05:41:02.237Z,97502.72
2022-08-16T05:43:43.353Z,97506.31
2022-08-16T05:46:06.199Z,97501.11
2022-08-16T05:48:37.510Z,97504.66
2022-08-16T05:51:07.691Z,97502.47
2022-08-16T05:53:38.882Z,97498.09
2022-08-16T05:56:19.464Z,97495.88
2022-08-16T05:58:47.171Z,97492.34
2022-08-16T06:01:16.820Z,97499.48
2022-08-16T06:03:46.762Z,97491.52
2022-08-16T06:06:28.060Z,97492.63
2022-08-16T06:08:49.036Z,97493.70
2022-08-16T06:11:20.415Z,97492.06
2022-08-16T06:13:51.871Z,97495.37
2022-08-16T06:16:23.182Z,97487.15
2022-08-16T06:18:54.853Z,97487.67
2022-08-16T06:21:28.041Z,97486.84
2022-08-16T06:24:01.174Z,97493.43
2022-08-16T06:26:34.856Z,97486.86
2022-08-16T06:29:01.993Z,97487.97
2022-08-16T06:31:31.667Z,97487.41
2022-08-16T06:34:03.093Z,97488.52
2022-08-16T06:36:34.243Z,97487.41
2022-08-16T06:39:06.158Z,97481.66
2022-08-16T06:41:39.654Z,97491.53
2022-08-16T06:44:07.037Z,97491.27
2022-08-16T06:46:38.728Z,97486.30
2022-08-16T06:49:10.823Z,97483.56
2022-08-16T06:54:02.431Z,97475.63
2022-08-16T06:56:32.164Z,97483.88
2022-08-16T06:59:02.495Z,97482.23
2022-08-16T07:01:45.200Z,97483.56
2022-08-16T07:04:11.986Z,97488.78
2022-08-16T07:06:38.374Z,97494.80
2022-08-16T07:09:09.529Z,97491.82
2022-08-16T07:11:47.420Z,97490.16
2022-08-16T07:14:25.259Z,97485.78
2022-08-16T07:16:42.764Z,97483.30
2022-08-16T07:19:13.894Z,97484.41
2022-08-16T07:21:59.987Z,97480.02
2022-08-16T07:24:29.911Z,97481.14
2022-08-16T07:26:49.787Z,97486.61
2022-08-16T07:29:19.545Z,97484.13
2022-08-16T07:31:51.397Z,97481.67
2022-08-16T07:34:35.156Z,97477.83
2022-08-16T07:36:57.800Z,97479.77
2022-08-16T07:39:30.437Z,97477.84
2022-08-16T07:41:57.806Z,97488.23
2022-08-16T07:44:27.356Z,97487.70
2022-08-16T07:46:58.634Z,97485.23
2022-08-16T07:49:32.273Z,97484.13
2022-08-16T07:51:59.733Z,97480.88
2022-08-16T07:54:39.175Z,97484.14
2022-08-16T07:57:05.533Z,97487.16
2022-08-16T07:59:42.758Z,97487.42
2022-08-16T08:02:12.039Z,97486.86
2022-08-16T08:04:39.662Z,97487.17
2022-08-16T08:07:10.608Z,97489.66
2022-08-16T08:09:43.419Z,97489.09
2022-08-16T08:12:32.429Z,97484.69
2022-08-16T08:14:43.811Z,97487.97
2022-08-16T08:17:16.012Z,97489.34
2022-08-16T08:19:53.278Z,97493.76
2022-08-16T08:22:22.031Z,97494.57
2022-08-16T08:24:53.273Z,97491.83
2022-08-16T08:27:23.642Z,97491.27
2022-08-16T08:30:49.262Z,97491.27
2022-08-16T08:32:59.944Z,97494.57
2022-08-16T08:35:03.043Z,97496.50
2022-08-16T08:37:54.265Z,97498.94
2022-08-16T08:40:03.452Z,97493.45
2022-08-16T08:42:34.138Z,97499.48
2022-08-16T08:45:04.580Z,97503.03
2022-08-16T08:47:34.887Z,97503.87
2022-08-16T08:50:05.421Z,97503.34
2022-08-16T08:52:37.902Z,97502.23
2022-08-16T08:55:11.000Z,97497.86
2022-08-16T08:57:44.111Z,97506.88
2022-08-16T09:00:14.663Z,97509.88
2022-08-16T09:02:52.125Z,97513.19
2022-08-16T09:05:17.122Z,97510.75
2022-08-16T09:08:00.271Z,97517.84
2022-08-16T09:10:20.652Z,97517.02
2022-08-16T09:12:50.740Z,97520.02
2022-08-16T09:15:22.116Z,97514.25
2022-08-16T09:17:55.079Z,97519.48
2022-08-16T09:20:25.976Z,97519.22
2022-08-16T09:22:55.789Z,97521.13
2022-08-16T09:25:33.764Z,97521.13
2022-08-16T09:28:02.476Z,97521.12
2022-08-16T09:30:34.452Z,97514.80
2022-08-16T09:33:01.273Z,97512.88
2022-08-16T09:35:31.189Z,97504.98
2022-08-16T09:38:02.270Z,97508.82
2022-08-16T09:40:42.791Z,97511.00
2022-08-16T09:43:05.758Z,97502.23
2022-08-16T09:45:37.368Z,97509.63
2022-08-16T09:48:09.302Z,97508.81
2022-08-16T09:50:39.868Z,97506.07
2022-08-16T09:53:18.422Z,97505.53
2022-08-16T09:55:50.130Z,97509.08
2022-08-16T09:58:41.744Z,97504.98
2022-08-16T10:00:55.756Z,97500.87
2022-08-16T10:03:26.533Z,97505.78
2022-08-16T10:05:58.085Z,97480.64
2022-08-16T10:08:27.975Z,97499.75
2022-08-16T10:11:23.933Z,97503.34
2022-08-16T10:13:47.361Z,97501.42
2022-08-16T10:16:18.254Z,97500.61
2022-08-16T10:19:02.055Z,97498.69
2022-08-16T10:21:20.683Z,97499.23
2022-08-16T10:23:53.565Z,97503.86
2022-08-16T10:27:20.323Z,97500.05
2022-08-16T10:28:56.590Z,97507.15
2022-08-16T10:31:46.057Z,97504.70
2022-08-16T10:33:58.485Z,97504.97
2022-08-16T10:36:37.872Z,97502.48
2022-08-16T10:39:04.443Z,97507.97
2022-08-16T10:41:34.690Z,97506.89
2022-08-16T10:44:05.187Z,97507.70
2022-08-16T10:46:41.457Z,97515.10
2022-08-16T10:49:07.716Z,97514.81
2022-08-16T10:52:01.632Z,97514.00
2022-08-16T10:54:29.277Z,97513.19
2022-08-16T10:56:55.482Z,97513.73
2022-08-16T10:59:44.049Z,97515.37
2022-08-16T11:05:05.644Z,97509.64
2022-08-16T11:07:08.662Z,97512.38
2022-08-16T11:09:25.648Z,97514.56
2022-08-16T11:12:13.748Z,97520.03
2022-08-16T11:14:27.587Z,97517.59
2022-08-16T11:17:10.509Z,97528.54
2022-08-16T11:19:30.913Z,97531.53
2022-08-16T11:22:39.691Z,97532.91
2022-08-16T11:24:43.293Z,97529.62
2022-08-16T11:27:32.790Z,97522.77
2022-08-16T11:29:41.475Z,97526.36
2022-08-16T11:32:11.149Z,97526.36
2022-08-16T11:35:05.772Z,97531.83
2022-08-16T11:37:27.704Z,97527.43
2022-08-16T11:39:46.705Z,97535.38
2022-08-16T11:42:30.456Z,97539.75
2022-08-16T11:44:52.510Z,97546.33
2022-08-16T11:47:20.683Z,97544.66
2022-08-16T11:49:50.393Z,97555.35
2022-08-16T11:52:21.688Z,97559.45
2022-08-16T11:54:53.954Z,97560.83
2022-08-16T11:57:22.926Z,97558.09
2022-08-16T11:59:55.015Z,97554.80
2022-08-16T12:02:31.813Z,97563.56
2022-08-16T12:04:57.486Z,97562.20
2022-08-16T12:07:27.406Z,97562.75
2022-08-16T12:09:57.910Z,97566.04
2022-08-16T12:12:28.534Z,97570.14
2022-08-16T12:14:59.776Z,97572.59
2022-08-16T12:17:33.760Z,97574.80
2022-08-16T12:20:04.947Z,97573.95
2022-08-16T12:22:36.668Z,97572.59
2022-08-16T12:25:12.600Z,97576.98
2022-08-16T12:27:45.114Z,97572.33
2022-08-16T12:30:26.376Z,97570.70
2022-08-16T12:32:52.959Z,97572.88
2022-08-16T12:35:22.548Z,97576.69
2022-08-16T12:37:56.694Z,97574.51
2022-08-16T12:40:25.551Z,97575.32
2022-08-16T12:42:59.123Z,97581.34
2022-08-16T12:45:30.777Z,97581.91
2022-08-16T12:48:35.354Z,97585.19
2022-08-16T12:50:50.757Z,97594.48
2022-08-16T12:53:21.260Z,97588.19
2022-08-16T12:55:51.533Z,97595.84
2022-08-16T12:58:48.396Z,97588.19
2022-08-16T13:00:54.011Z,97593.66
2022-08-16T13:03:24.362Z,97587.92
2022-08-16T13:05:56.292Z,97587.33
2022-08-16T13:08:30.579Z,97583.74
2022-08-16T13:10:57.410Z,97577.21
2022-08-16T13:13:27.431Z,97582.69
2022-08-16T13:16:03.756Z,97579.12
2022-08-16T13:18:34.195Z,97572.27
2022-08-16T13:21:04.034Z,97575.56
2022-08-16T13:23:33.751Z,97578.27
2022-08-16T13:26:06.782Z,97580.76
2022-08-16T13:28:37.880Z,97581.58
2022-08-16T13:31:14.270Z,97581.58
2022-08-16T15:24:58.888Z,97607.02
2022-08-16T15:27:35.670Z,97603.16
2022-08-16T15:30:02.243Z,97600.66
2022-08-16T15:32:33.673Z,97604.72
2022-08-16T15:35:10.335Z,97600.28
2022-08-16T15:37:44.056Z,97603.56
2022-08-16T15:40:32.565Z,97603.23
2022-08-16T15:43:01.237Z,97608.66
2022-08-16T15:45:55.588Z,97609.70
2022-08-16T15:48:21.291Z,97617.84
2022-08-16T15:50:52.475Z,97620.59
2022-08-16T15:53:24.207Z,97614.24
2022-08-16T15:55:53.731Z,97614.17
2022-08-16T15:58:35.727Z,97618.23
2022-08-16T16:00:56.489Z,97616.59
2022-08-16T16:03:26.697Z,97613.30
2022-08-16T16:06:00.483Z,97618.77
2022-08-16T16:08:30.775Z,97617.14
2022-08-16T16:11:03.259Z,97618.67
2022-08-16T16:13:33.309Z,97627.08
2022-08-16T16:16:06.728Z,97623.19
2022-08-16T16:18:38.129Z,97629.17
2022-08-16T16:21:10.418Z,97605.45
2022-08-16T16:23:53.881Z,97605.45
2022-08-16T16:26:16.311Z,97620.48
2022-08-16T16:29:08.784Z,97616.64
2022-08-16T16:31:20.437Z,97612.00
2022-08-16T16:33:53.988Z,97610.66
2022-08-16T16:36:29.807Z,97604.95
2022-08-16T16:38:59.621Z,97609.00
2022-08-16T16:41:30.367Z,97602.41
2022-08-16T16:44:02.158Z,97600.47
2022-08-16T16:46:42.737Z,97608.88
2022-08-16T16:49:09.238Z,97597.39
2022-08-16T16:51:41.232Z,97598.45
2022-08-16T16:54:12.903Z,97595.92
2022-08-16T16:56:58.992Z,97599.87
2022-08-16T16:59:28.239Z,97589.62
2022-08-16T17:02:01.405Z,97586.42
2022-08-16T17:04:31.798Z,97573.90
2022-08-16T17:07:02.377Z,97584.00
2022-08-16T17:09:33.081Z,97576.13
2022-08-16T17:12:07.650Z,97583.58
2022-08-16T17:14:38.696Z,97574.05
2022-08-16T17:17:13.285Z,97568.33
2022-08-16T17:19:43.195Z,97572.14
2022-08-16T17:22:16.200Z,97569.11
2022-08-16T17:24:53.484Z,97563.16
2022-08-16T17:27:32.422Z,97561.84
2022-08-16T17:29:57.539Z,97561.60
2022-08-16T17:32:34.147Z,97563.99
2022-08-16T17:35:00.556Z,97557.76
2022-08-16T17:37:34.029Z,97566.81
2022-08-16T17:40:23.217Z,97564.97
2022-08-16T17:42:33.907Z,97570.20
2022-08-16T17:45:03.513Z,97554.89
2022-08-16T17:47:33.214Z,97554.06
2022-08-16T17:50:03.131Z,97551.53
2022-08-16T17:52:35.707Z,97548.25
2022-08-16T17:55:12.212Z,97549.41
2022-08-16T17:57:42.809Z,97540.97
2022-08-16T18:00:20.107Z,97540.97
2022-08-16T18:02:47.673Z,97541.21
2022-08-16T18:05:17.618Z,97537.71
2022-08-16T18:07:47.716Z,97544.84
2022-08-16T18:10:31.288Z,97535.59
2022-08-16T18:12:55.497Z,97532.88
2022-08-16T18:15:24.125Z,97527.91
2022-08-16T18:17:54.154Z,97523.53
2022-08-16T18:20:28.492Z,97520.23
2022-08-16T18:23:07.577Z,97522.75
2022-08-16T18:25:37.618Z,97521.11
2022-08-16T18:28:08.138Z,97520.84
2022-08-16T18:30:38.066Z,97513.19
2022-08-16T18:33:10.682Z,97515.38
2022-08-16T18:35:43.529Z,97519.20
2022-08-16T18:38:13.160Z,97511.59
2022-08-16T18:40:42.784Z,97502.84
2022-08-16T18:43:14.830Z,97504.75
2022-08-16T18:45:46.743Z,97498.45
2022-08-16T18:48:17.875Z,97502.27
2022-08-16T18:51:04.066Z,97494.59
2022-08-16T18:53:27.315Z,97488.55
2022-08-16T18:55:59.521Z,97492.69
2022-08-16T18:58:29.708Z,97476.88
2022-08-16T19:00:59.571Z,97475.52
2022-08-16T19:03:31.784Z,97470.57
2022-08-16T19:06:06.715Z,97464.55
2022-08-16T19:08:37.979Z,97460.69
2022-08-16T19:11:09.379Z,97464.55
2022-08-16T19:13:40.566Z,97463.73
2022-08-16T19:16:10.345Z,97459.38
2022-08-16T19:18:40.411Z,97459.11
2022-08-16T19:21:10.537Z,97456.04
2022-08-16T19:23:42.011Z,97454.16
2022-08-16T19:26:25.651Z,97458.25
2022-08-16T19:28:59.642Z,97462.91
2022-08-16T19:31:29.542Z,97454.17
2022-08-16T19:33:59.288Z,97451.72
2022-08-16T19:36:36.014Z,97445.42
2022-08-16T19:39:06.361Z,97438.31
2022-08-16T19:41:37.422Z,97435.28
2022-08-16T19:44:11.481Z,97440.24
2022-08-16T19:46:41.852Z,97442.73
2022-08-16T19:49:14.938Z,97427.95
2022-08-16T19:51:45.442Z,97428.76
2022-08-16T19:54:16.304Z,97425.77
2022-08-16T19:56:47.065Z,97429.61
2022-08-16T19:59:20.508Z,97427.72
2022-08-16T20:01:50.372Z,97427.44
2022-08-16T20:04:20.186Z,97421.95
2022-08-16T20:06:49.817Z,97417.30
2022-08-16T20:09:19.516Z,97415.67
2022-08-16T20:11:49.963Z,97408.04
2022-08-16T20:14:25.603Z,97408.87
2022-08-16T20:16:53.535Z,97401.49
2022-08-16T20:19:23.228Z,97400.69
2022-08-16T20:21:53.218Z,97402.03
2022-08-16T20:24:34.213Z,97397.38
2022-08-16T20:26:54.330Z,97391.12
2022-08-16T20:29:23.963Z,97401.77
2022-08-16T20:31:54.734Z,97401.77
2022-08-16T20:34:24.843Z,97400.41
2022-08-16T20:36:55.982Z,97394.68
2022-08-16T20:39:25.783Z,97396.88
2022-08-16T20:41:55.423Z,97384.85
2022-08-16T20:44:25.136Z,97383.78
2022-08-16T20:46:56.859Z,97369.03
2022-08-16T20:49:26.586Z,97371.21
2022-08-16T20:51:59.766Z,97360.55
2022-08-16T20:54:30.578Z,97358.92
2022-08-16T20:57:00.139Z,97357.00
2022-08-16T20:59:30.285Z,97360.30
2022-08-16T21:01:59.991Z,97355.09
2022-08-16T21:04:30.213Z,97355.65
2022-08-16T21:07:00.396Z,97349.08
2022-08-16T21:09:32.413Z,97348.30
2022-08-16T21:12:03.605Z,97343.64
2022-08-16T21:14:34.815Z,97346.38
2022-08-16T21:17:05.149Z,97353.22
2022-08-16T21:19:34.689Z,97339.81
2022-08-16T21:22:22.790Z,97335.45
2022-08-16T21:24:54.088Z,97333.81
2022-08-16T21:27:26.922Z,97341.98
2022-08-16T21:29:57.770Z,97326.14
2022-08-16T21:32:35.799Z,97321.22
2022-08-16T21:35:03.335Z,97319.59
2022-08-16T21:37:33.055Z,97312.72
2022-08-16T21:40:02.653Z,97296.62
2022-08-16T21:42:36.410Z,97302.88
2022-08-16T21:45:04.358Z,97310.27
2022-08-16T21:47:33.869Z,97310.27
2022-08-16T21:50:03.563Z,97303.95
2022-08-16T21:52:33.070Z,97302.05
2022-08-16T21:55:02.585Z,97303.38
2022-08-16T21:57:35.455Z,97308.33
2022-08-16T22:00:03.652Z,97303.37
2022-08-16T22:02:38.546Z,97303.92
2022-08-16T22:05:06.939Z,97297.89
2022-08-16T22:07:36.529Z,97291.05
2022-08-16T22:11:05.489Z,97290.49
2022-08-16T22:12:38.162Z,97285.02
2022-08-16T22:15:09.244Z,97291.03
2022-08-16T22:17:39.126Z,97289.40
2022-08-16T22:20:09.952Z,97287.19
2022-08-16T22:22:39.579Z,97281.45
2022-08-16T22:25:10.122Z,97281.18
2022-08-16T22:30:35.126Z,97269.14
2022-08-16T22:33:03.185Z,97277.91
2022-08-16T22:35:32.925Z,97271.87
2022-08-16T22:38:50.646Z,97266.10
2022-08-16T22:40:33.794Z,97275.67
2022-08-16T22:43:03.364Z,97276.52
2022-08-16T22:45:33.121Z,97272.11
2022-08-16T22:48:11.435Z,97276.20
2022-08-16T22:50:41.922Z,97278.13
2022-08-16T22:53:11.669Z,97270.72
2022-08-16T22:55:42.471Z,97277.82
2022-08-16T22:58:13.771Z,97274.27
2022-08-16T23:00:45.001Z,97276.17
2022-08-16T23:03:18.703Z,97275.62
2022-08-16T23:05:51.324Z,97273.42
2022-08-16T23:08:38.086Z,97282.19
2022-08-16T23:10:53.902Z,97281.63
2022-08-16T23:13:25.667Z,97279.41
2022-08-16T23:16:01.832Z,97275.03
2022-08-16T23:18:32.270Z,97270.66
2022-08-16T23:21:03.399Z,97267.91
2022-08-16T23:23:34.039Z,97273.37
2022-08-16T23:26:46.564Z,97246.89
2022-08-16T23:28:36.778Z,97275.55
2022-08-16T23:31:07.753Z,97261.56
2022-08-16T23:33:37.891Z,97262.92
2022-08-16T23:36:08.321Z,97262.92
2022-08-16T23:38:39.852Z,97254.99
2022-08-16T23:41:13.254Z,97259.35
2022-08-16T23:43:43.970Z,97252.23
2022-08-16T23:46:17.149Z,97251.94
2022-08-16T23:49:58.987Z,97251.38
2022-08-16T23:51:38.397Z,97257.14
2022-08-16T23:53:51.795Z,97251.67
2022-08-16T23:56:22.244Z,97243.71
2022-08-16T23:59:02.110Z,97238.48
